This is the latest recevied weather packets stored in our database for station/object WX1NWA. If no packets are shown the sender has not sent any weather packets the latest 1 day(s).
| Time | Temp. | Humidity | Pressure | Rain* | Wind** | Luminosity | Snow |
|---|---|---|---|---|---|---|---|
| 1778020139 | 12.78° C | 99% | 1009 hPa | 0 mm | 0.45 m/s, 300° | 27 W/m² | - |
| 1778019835 | 12.78° C | 99% | 1008.8 hPa | 0 mm | 0.89 m/s, 283° | 29 W/m² | - |
| 1778019532 | 12.78° C | 99% | 1008.7 hPa | 0 mm | 0.89 m/s, 282° | 22 W/m² | - |
| 1778019229 | 12.78° C | 99% | 1008.8 hPa | 0 mm | 0.89 m/s, 295° | 30 W/m² | - |
| 1778018926 | 12.78° C | 99% | 1009 hPa | 0 mm | 0.89 m/s, 319° | 41 W/m² | - |
| 1778018623 | 12.78° C | 99% | 1009.5 hPa | 0 mm | 1.34 m/s, 307° | 19 W/m² | - |
| 1778018321 | 12.78° C | 99% | 1009.1 hPa | 0 mm | 1.34 m/s, 292° | 20 W/m² | - |
| 1778018019 | 12.78° C | 99% | 1008.8 hPa | 0 mm | 0.89 m/s, 277° | 28 W/m² | - |
| 1778017717 | 13.33° C | 99% | 1008.8 hPa | 0 mm | 1.34 m/s, 305° | 23 W/m² | - |
| 1778017414 | 13.89° C | 99% | 1008.6 hPa | 0 mm | 1.34 m/s, 288° | 25 W/m² | - |
| 1778017111 | 14.44° C | 99% | 1008.9 hPa | 0 mm | 1.34 m/s, 289° | 29 W/m² | - |
| 1778016809 | 14.44° C | 99% | 1008.9 hPa | 0 mm | 0.45 m/s, 268° | 47 W/m² | - |
| 1778016504 | 15° C | 99% | 1009 hPa | 0 mm | 0.45 m/s, 279° | 58 W/m² | - |
| 1778016202 | 15° C | 99% | 1009.2 hPa | 0 mm | 1.34 m/s, 320° | 42 W/m² | - |
| 1778015897 | 16.67° C | 99% | 1009.1 hPa | 0 mm | 0.45 m/s, 275° | 13 W/m² | - |
| 1778015596 | 17.78° C | 99% | 1009.1 hPa | 0 mm | 0 m/s | 19 W/m² | - |
| 1778015292 | 18.33° C | 99% | 1009 hPa | 0 mm | 0 m/s | 32 W/m² | - |
| 1778014989 | 18.33° C | 99% | 1009.3 hPa | 0 mm | 0 m/s | 53 W/m² | - |
| 1778014686 | 18.33° C | 99% | 1009 hPa | 0 mm | 0 m/s | 94 W/m² | - |
| 1778014384 | 18.33° C | 99% | 1009.3 hPa | 0 mm | 0 m/s | 37 W/m² | - |
| 1778014080 | 18.33° C | 99% | 1009.2 hPa | 0 mm | 0.89 m/s, 215° | 59 W/m² | - |
| 1778013778 | 18.33° C | 99% | 1008.9 hPa | 0 mm | 0 m/s | 127 W/m² | - |
| 1778013475 | 17.78° C | 99% | 1009.1 hPa | 0 mm | 0 m/s | 52 W/m² | - |
| 1778013172 | 17.78° C | 99% | 1009 hPa | 0 mm | 0.45 m/s, 264° | 67 W/m² | - |
| 1778012868 | 17.78° C | 99% | 1009 hPa | 0 mm | 0 m/s | 79 W/m² | - |
* Rain latest hour (hover to see other rain measurements)
** Current wind speed in m/s (hover to see current wind gust speed)